Latest Weather Observations for Murrurundi Gap

IDN60801

Issued at 4:03 am EDT Wednesday 18 October 2017 (issued every 30 minutes, with the page automatically refreshed every 10 minutes)

About weather observations | Map of weather stations | Latest weather observations for NSW | Other Formats
Station Details ID: 061392 Name: MURRURUNDI GAP AWS Lat: -31.74 Lon: 150.79 Height: 729.4 m
Data from the previous 72 hours. | See also: Recent months at Murrurundi Gap
Date/Time
EDT
Temp
°C
App
Temp
°C
Dew
Point
°C
Rel
Hum
%
Delta-T
°C
Wind Press
QNH
hPa
Press
MSL
hPa
Rain since
9am
mm
Dir  Spd
km/h
Gust
km/h
Spd
kts
Gust
kts
18/04:00am 12.1 9.5 9.3 83 1.5 SE 13 19 7 10 1025.9 1023.9 0.0
18/03:30am 12.2 8.9 9.6 84 1.4 ESE 17 19 9 10 1026.1 1024.0 0.0
18/03:00am 12.6 10.1 9.8 83 1.5 ESE 13 19 7 10 1025.8 1023.8 0.0
18/02:30am 12.2 9.1 9.0 81 1.7 ESE 15 19 8 10 1026.6 1024.5 0.0
18/02:00am 13.6 9.3 9.3 75 2.3 SE 22 28 12 15 1027.2 1025.2 0.0
18/01:30am 13.3 9.3 9.2 76 2.2 SE 20 26 11 14 1027.6 1025.5 0.0
18/01:00am 13.4 10.0 9.3 76 2.2 SE 17 22 9 12 1027.9 1025.8 0.0
18/12:30am 13.7 9.8 9.4 75 2.3 SE 20 26 11 14 1028.0 1025.9 0.0
18/12:00am 13.9 9.3 9.5 75 2.3 SE 24 28 13 15 1027.8 1025.7 0.0
 
Date/Time
EDT
Temp
°C
App
Temp
°C
Dew
Point
°C
Rel
Hum
%
Delta-T
°C
Wind Press
QNH
hPa
Press
MSL
hPa
Rain since
9am
mm
Dir  Spd
km/h
Gust
km/h
Spd
kts
Gust
kts
17/11:30pm 14.3 10.0 9.5 73 2.6 SE 22 30 12 16 1027.8 1025.7 0.0
17/11:00pm 14.6 9.2 9.4 71 2.8 SE 28 37 15 20 1027.2 1025.2 0.0
17/10:30pm 14.8 10.7 10.0 73 2.6 SE 22 30 12 16 1027.1 1025.1 0.0
17/10:00pm 15.1 11.4 10.1 72 2.7 SE 20 26 11 14 1026.8 1024.8 0.0
17/09:30pm 15.6 11.1 9.9 69 3.1 SE 24 33 13 18 1026.6 1024.5 0.0
17/09:00pm 16.3 12.1 9.7 65 3.6 SE 22 30 12 16 1026.7 1024.6 0.0
17/08:30pm 16.5 12.0 8.5 59 4.2 ESE 22 30 12 16 1026.4 1024.3 0.0
17/08:00pm 17.4 13.2 7.5 52 5.2 ESE 19 24 10 13 1025.8 1023.8 0.0
17/07:30pm 18.2 13.1 7.6 50 5.6 ESE 24 37 13 20 1025.5 1023.4 0.0
17/07:00pm 18.8 13.0 7.9 49 5.8 ESE 28 37 15 20 1025.0 1022.9 0.0
17/06:30pm 19.6 13.2 8.6 49 6.0 ESE 32 44 17 24 1024.8 1022.7 0.0
17/06:00pm 20.2 14.5 8.2 46 6.4 ESE 28 39 15 21 1024.6 1022.5 0.0
17/05:30pm 20.8 15.4 8.1 44 6.9 ESE 26 41 14 22 1024.6 1022.5 0.0
17/05:00pm 21.0 14.5 8.0 43 7.0 ESE 32 44 17 24 1024.2 1022.1 0.0
17/04:30pm 21.4 15.7 8.3 43 7.1 ESE 28 39 15 21 1024.3 1022.2 0.0
17/04:00pm 21.6 15.5 8.1 42 7.3 ESE 30 43 16 23 1024.2 1022.1 0.0
17/03:30pm 21.6 15.0 7.8 41 7.4 ESE 32 50 17 27 1024.4 1022.4 0.0
17/03:28pm 21.7 15.1 7.9 41 7.5 ESE 32 50 17 27 1024.4 1022.4 0.0
17/03:00pm 21.7 14.4 8.6 43 7.1 ESE 37 50 20 27 1024.6 1022.5 0.0
17/02:30pm 21.8 14.9 8.7 43 7.2 ESE 35 50 19 27 1024.8 1022.7 0.0
17/02:00pm 21.1 13.6 8.0 43 7.0 ESE 37 50 20 27 1024.9 1022.8 0.0
17/01:44pm 20.9 13.8 8.2 44 6.9 ESE 35 54 19 29 1025.0 1022.9 0.0
17/01:30pm 21.2 14.1 8.1 43 7.1 ESE 35 50 19 27 1025.1 1023.0 0.0
17/01:00pm 21.1 14.2 8.7 45 6.7 SE 35 46 19 25 1025.3 1023.2 0.0
17/12:30pm 20.2 13.1 7.9 45 6.6 ESE 35 44 19 24 1025.4 1023.3 0.0
17/12:13pm 20.5 14.2 8.8 47 6.4 SE 32 52 17 28 1025.3 1023.2 0.0
17/12:00pm 20.2 12.9 8.8 48 6.2 SE 37 50 20 27 1025.6 1023.6 0.0
17/11:49am 20.2 13.9 8.8 48 6.2 SE 32 50 17 27 1025.5 1023.4 0.0
17/11:30am 19.1 12.5 8.7 51 5.6 SE 33 46 18 25 1025.8 1023.8 0.0
17/11:00am 18.9 11.9 8.3 50 5.7 ESE 35 44 19 24 1026.2 1024.1 0.0
17/10:30am 18.1 11.1 8.4 53 5.2 ESE 35 44 19 24 1026.4 1024.3 0.0
17/10:00am 17.9 10.3 9.0 56 4.8 ESE 39 50 21 27 1026.2 1024.1 0.0
17/09:30am 17.0 8.9 8.7 58 4.4 ESE 41 52 22 28 1026.2 1024.1 0.0
17/09:00am 15.8 9.1 9.5 66 3.4 SE 35 46 19 25 1026.4 1024.3 0.0
17/08:30am 14.6 7.8 9.4 71 2.8 SE 35 46 19 25 1026.3 1024.2 0.0
17/08:00am 14.1 7.7 9.3 73 2.5 SE 33 44 18 24 1025.9 1023.9 0.0
17/07:30am 12.8 7.2 8.9 77 2.0 ESE 28 35 15 19 1026.2 1024.1 0.0
17/07:00am 11.6 6.7 8.6 82 1.5 ESE 24 32 13 17 1025.7 1023.7 0.0
17/06:30am 10.9 5.5 8.1 83 1.4 SE 26 33 14 18 1025.5 1023.4 0.0
17/06:00am 11.0 5.3 8.2 83 1.4 SE 28 32 15 17 1025.4 1023.3 0.0
17/05:30am 10.9 5.1 8.0 82 1.5 SE 28 37 15 20 1025.0 1022.9 0.0
17/05:00am 11.1 5.0 8.1 82 1.5 ESE 30 37 16 20 1024.8 1022.7 0.0
17/04:30am 11.6 5.1 8.1 79 1.8 SE 32 39 17 21 1024.8 1022.7 0.0
17/04:00am 11.5 5.4 8.2 80 1.7 ESE 30 37 16 20 1024.8 1022.7 0.0
17/03:30am 11.8 5.3 8.3 79 1.8 SE 32 39 17 21 1024.8 1022.7 0.0
17/03:00am 11.8 5.7 8.3 79 1.8 SE 30 39 16 21 1025.0 1022.9 0.0
17/02:30am 11.8 6.4 8.1 78 1.9 SE 26 35 14 19 1025.2 1023.1 0.0
17/02:00am 12.1 6.4 8.2 77 2.0 ESE 28 35 15 19 1025.6 1023.6 0.0
17/01:30am 12.4 7.1 8.3 76 2.1 SE 26 33 14 18 1026.1 1024.0 0.0
17/01:00am 11.9 5.7 8.0 77 2.0 ESE 30 37 16 20 1026.2 1024.1 0.0
17/12:30am 12.6 6.4 7.7 72 2.5 SE 30 39 16 21 1026.4 1024.3 0.0
17/12:00am 12.8 6.6 7.7 71 2.6 SE 30 37 16 20 1026.5 1024.4 0.0
 
Date/Time
EDT
Temp
°C
App
Temp
°C
Dew
Point
°C
Rel
Hum
%
Delta-T
°C
Wind Press
QNH
hPa
Press
MSL
hPa
Rain since
9am
mm
Dir  Spd
km/h
Gust
km/h
Spd
kts
Gust
kts
16/11:30pm 12.9 6.3 7.8 71 2.6 SE 32 43 17 23 1026.3 1024.2 0.0
16/11:00pm 13.1 6.6 8.0 71 2.6 SE 32 43 17 23 1026.4 1024.3 0.0
16/10:30pm 13.2 6.6 7.9 70 2.7 SE 32 39 17 21 1026.3 1024.2 0.0
16/10:00pm 13.6 7.8 7.8 68 3.0 SE 28 35 15 19 1026.3 1024.2 0.0
16/09:30pm 13.9 7.7 7.7 66 3.2 ESE 30 39 16 21 1026.3 1024.2 0.0
16/09:00pm 14.6 8.3 7.6 63 3.6 ESE 30 39 16 21 1026.1 1024.0 0.0
16/08:30pm 15.4 9.5 7.7 60 4.0 ESE 28 43 15 23 1025.7 1023.7 0.0
16/08:00pm 16.0 8.7 7.2 56 4.5 ESE 35 46 19 25 1025.0 1022.9 0.0
16/07:30pm 16.9 10.1 6.7 51 5.2 ESE 32 44 17 24 1024.8 1022.7 0.0
16/07:00pm 17.7 10.5 5.9 46 6.0 ESE 33 44 18 24 1024.6 1022.5 0.0
16/06:30pm 18.4 10.8 5.9 44 6.4 ESE 35 44 19 24 1024.1 1022.0 0.0
16/06:00pm 19.3 12.0 5.4 40 7.0 ESE 33 46 18 25 1024.0 1021.9 0.0
16/05:30pm 19.9 12.5 4.8 37 7.6 ESE 33 44 18 24 1023.9 1021.8 0.0
16/05:00pm 20.4 12.6 4.8 36 7.9 ESE 35 52 19 28 1023.7 1021.6 0.0
16/04:30pm 20.9 13.7 5.7 37 7.8 ESE 33 48 18 26 1023.4 1021.3 0.0
16/04:00pm 20.9 13.2 5.3 36 8.0 ESE 35 48 19 26 1023.6 1021.5 0.0
16/03:58pm 20.9 12.8 5.3 36 8.0 ESE 37 50 20 27 1023.7 1021.6 0.0
16/03:30pm 20.9 13.2 5.3 36 8.0 SE 35 57 19 31 1023.5 1021.4 0.0
16/03:19pm 20.8 13.6 5.2 36 8.0 ESE 32 50 17 27 1023.8 1021.7 0.0
16/03:00pm 20.2 11.7 5.1 37 7.6 ESE 39 52 21 28 1023.7 1021.6 0.0
16/02:30pm 20.4 11.8 4.8 36 7.9 ESE 39 54 21 29 1024.0 1021.9 0.0
16/02:00pm 20.8 13.6 6.0 38 7.6 SE 33 50 18 27 1024.6 1022.5 0.0
16/01:31pm 20.1 12.3 6.5 41 7.1 SE 37 56 20 30 1024.8 1022.7 0.0
16/01:30pm 20.1 11.9 6.5 41 7.1 SE 39 56 21 30 1024.9 1022.8 0.0
16/01:00pm 19.5 10.5 6.3 42 6.8 ESE 43 61 23 33 1024.6 1022.5 0.0
16/12:35pm 19.7 11.3 7.4 45 6.5 SE 41 59 22 32 1025.4 1023.3 0.0
16/12:30pm 19.6 10.6 7.4 45 6.5 ESE 44 59 24 32 1025.4 1023.3 0.0
16/12:00pm 19.3 10.8 6.8 44 6.5 SE 41 57 22 31 1025.4 1023.3 0.0
16/11:30am 18.6 10.7 6.4 45 6.3 ESE 37 56 20 30 1026.6 1024.5 0.0
16/11:06am 18.3 10.2 7.1 48 5.8 ESE 39 57 21 31 1026.7 1024.6 0.0
16/11:00am 18.1 9.5 6.6 47 5.9 ESE 41 52 22 28 1026.7 1024.6 0.0
16/10:30am 16.7 7.6 6.8 52 5.1 SE 44 65 24 35 1026.5 1024.4 0.0
16/10:19am 16.1 5.8 6.3 52 5.0 SE 50 72 27 39 1025.6 1023.6 0.0
16/10:00am 15.5 4.7 6.2 54 4.7 SE 52 69 28 37 1025.5 1023.4 0.0
16/09:55am 15.6 4.6 6.6 55 4.6 SE 54 72 29 39 1025.7 1023.7 0.0
16/09:30am 14.8 3.4 6.6 58 4.1 SE 56 70 30 38 1025.7 1023.7 0.0
16/09:00am 13.8 3.6 7.1 64 3.4 ESE 50 61 27 33 1025.8 1023.8 0.0
16/08:30am 13.3 3.5 7.1 66 3.1 SE 48 59 26 32 1025.6 1023.6 0.0
16/08:00am 12.5 4.0 7.0 69 2.7 SE 41 52 22 28 1025.8 1023.8 0.0
16/07:49am 12.2 5.5 7.5 73 2.4 SE 32 41 17 22 1026.1 1024.0 0.0
16/07:30am 10.2 7.1 7.3 82 1.4 ESE 13 20 7 11 1026.1 1024.0 0.0
16/07:00am 9.4 2.0 6.8 84 1.3 SE 35 44 19 24 1024.8 1022.7 0.0
16/06:30am 7.7 1.9 6.2 90 0.7 SE 26 33 14 18 1024.8 1022.7 0.0
16/06:00am 8.2 1.2 6.2 87 0.9 SE 32 39 17 21 1024.2 1022.1 0.0
16/05:30am 9.5 2.3 5.7 77 1.8 SE 33 39 18 21 1023.8 1021.7 0.0
16/05:00am 9.7 2.7 5.9 77 1.8 SE 32 41 17 22 1023.5 1021.4 0.0
16/04:30am 10.1 3.1 5.9 75 2.0 SE 32 39 17 21 1023.7 1021.6 0.0
16/04:00am 10.5 3.9 6.1 74 2.1 SE 30 37 16 20 1024.0 1021.9 0.0
16/03:30am 11.1 3.2 6.3 72 2.3 SE 37 44 20 24 1023.9 1021.8 0.0
16/03:00am 10.9 3.4 6.1 72 2.3 SE 35 43 19 23 1023.9 1021.8 0.0
16/02:30am 10.5 3.9 6.1 74 2.1 ESE 30 37 16 20 1024.3 1022.2 0.0
16/02:00am 10.8 2.9 6.2 73 2.2 SE 37 44 20 24 1024.4 1022.4 0.0
16/01:30am 11.1 4.1 6.0 71 2.5 SE 32 39 17 21 1025.2 1023.1 0.0
16/01:00am 11.6 4.5 5.7 67 2.8 SE 32 41 17 22 1025.5 1023.4 0.0
16/12:30am 11.3 5.4 5.8 69 2.7 SE 26 35 14 19 1025.5 1023.4 0.0
16/12:00am 11.6 6.1 5.7 67 2.8 SE 24 30 13 16 1025.6 1023.6 0.0
 
Date/Time
EDT
Temp
°C
App
Temp
°C
Dew
Point
°C
Rel
Hum
%
Delta-T
°C
Wind Press
QNH
hPa
Press
MSL
hPa
Rain since
9am
mm
Dir  Spd
km/h
Gust
km/h
Spd
kts
Gust
kts
15/11:30pm 12.4 5.4 5.8 64 3.2 SE 32 37 17 20 1025.5 1023.4 0.0
15/11:00pm 12.7 6.0 5.8 63 3.4 SE 30 37 16 20 1025.5 1023.4 0.0
15/10:30pm 13.0 5.8 5.9 62 3.5 SE 33 46 18 25 1025.2 1023.1 0.0
15/10:00pm 13.6 5.4 6.5 62 3.5 ESE 39 52 21 28 1024.9 1022.8 0.0
15/09:30pm 14.1 6.4 7.2 63 3.5 SE 37 46 20 25 1025.0 1022.9 0.0
15/09:00pm 14.6 6.5 7.2 61 3.8 ESE 39 52 21 28 1024.4 1022.4 0.0
15/08:30pm 15.5 7.5 7.3 58 4.2 ESE 39 50 21 27 1024.1 1022.0 0.0
15/08:00pm 16.2 7.8 7.2 55 4.6 ESE 41 52 22 28 1023.5 1021.4 0.0
15/07:30pm 16.9 8.8 7.0 52 5.1 ESE 39 56 21 30 1023.2 1021.0 0.0
15/07:00pm 17.6 8.8 7.4 51 5.3 ESE 43 52 23 28 1022.8 1020.7 0.0
15/06:30pm 18.4 10.7 7.2 48 5.9 ESE 37 50 20 27 1022.4 1020.3 0.0
15/06:00pm 19.2 11.1 7.0 45 6.4 ESE 39 54 21 29 1022.0 1019.9 0.0
15/05:53pm 19.6 12.5 6.4 42 6.9 ESE 33 54 18 29 1021.8 1019.6 0.0
15/05:30pm 19.8 11.1 5.8 40 7.2 ESE 41 48 22 26 1021.8 1019.6 0.0
15/05:00pm 20.8 13.6 6.0 38 7.7 ESE 33 48 18 26 1021.7 1019.5 0.0
15/04:30pm 20.1 13.2 6.5 41 7.1 ESE 32 44 17 24 1021.8 1019.6 0.0
15/04:00pm 20.8 13.7 5.6 37 7.8 ESE 32 44 17 24 1021.8 1019.6 0.0
15/03:30pm 21.0 15.1 7.3 41 7.3 ESE 28 39 15 21 1022.0 1019.9 0.0
15/03:00pm 20.2 13.5 5.8 39 7.4 ESE 30 43 16 23 1022.1 1020.0 0.0
15/02:30pm 20.4 12.8 5.6 38 7.6 ESE 35 50 19 27 1022.2 1020.1 0.0
15/02:22pm 20.9 14.5 6.8 40 7.4 ESE 30 50 16 27 1022.1 1020.0 0.0
15/02:00pm 20.1 12.6 6.5 41 7.1 ESE 35 48 19 26 1022.6 1020.5 0.0
15/01:30pm 19.9 12.5 6.6 42 6.9 ESE 35 52 19 28 1022.9 1020.8 0.0
15/01:00pm 19.5 12.1 6.6 43 6.7 ESE 35 46 19 25 1022.9 1020.8 0.0
15/12:30pm 20.1 12.6 8.1 46 6.4 ESE 37 54 20 29 1023.3 1021.2 0.0
15/12:04pm 19.8 12.4 8.2 47 6.2 ESE 37 56 20 30 1023.2 1021.0 0.0
15/12:00pm 19.6 11.7 8.0 47 6.2 ESE 39 54 21 29 1023.5 1021.4 0.0
15/11:30am 19.2 11.6 7.6 47 6.1 ESE 37 52 20 28 1023.6 1021.5 0.0
15/11:06am 18.8 10.8 7.6 48 5.9 ESE 39 57 21 31 1023.6 1021.5 0.0
15/11:00am 18.6 10.4 8.0 50 5.6 ESE 41 54 22 29 1023.6 1021.5 0.0
15/10:30am 17.3 8.1 6.5 49 5.5 SE 44 57 24 31 1023.4 1021.3 0.0
15/10:10am 17.8 9.4 7.5 51 5.4 SE 41 59 22 32 1023.5 1021.4 0.0
15/10:00am 16.8 7.3 6.6 51 5.2 ESE 46 59 25 32 1023.5 1021.4 0.0
15/09:37am 16.3 7.3 6.4 52 5.0 SE 43 63 23 34 1023.1 1020.9 0.0
15/09:30am 16.4 7.6 7.3 55 4.7 SE 43 56 23 30 1023.4 1021.3 0.0
15/09:10am 16.0 7.1 7.5 57 4.4 SE 44 65 24 35 1023.1 1020.9 0.0
15/09:00am 15.8 7.1 7.6 58 4.2 SE 43 56 23 30 1022.7 1020.6 0.0
15/08:42am 15.3 7.3 9.0 66 3.3 SE 41 59 22 32 1022.8 1020.7 0.0
15/08:30am 14.5 6.1 8.9 69 3.0 SE 43 52 23 28 1022.7 1020.6 0.0
15/08:00am 13.7 5.4 9.9 78 2.0 SE 44 52 24 28 1022.6 1020.5 0.0
15/07:30am 12.7 5.0 10.2 85 1.3 SE 41 50 22 27 1022.1 1020.0 0.0
15/07:00am 11.9 4.8 11.0 94 0.5 SE 39 46 21 25 1022.0 1019.9 0.0
15/06:30am 11.4 4.6 10.8 96 0.3 SE 37 44 20 24 1021.9 1019.7 0.0
15/06:00am 11.0 3.8 10.5 97 0.3 SE 39 50 21 27 1021.4 1019.3 0.0
15/05:30am 11.1 4.2 10.3 95 0.4 SE 37 44 20 24 1021.4 1019.3 0.0
15/05:00am 11.2 4.3 10.3 94 0.5 SE 37 46 20 25 1021.1 1019.0 0.0
15/04:30am 11.5 4.6 10.2 92 0.7 SE 37 46 20 25 1021.0 1018.9 0.0

Other Formats:

Comma delimited format used in spreadsheet applications
http://www.bom.gov.au/fwo/IDN60801/IDN60801.95747.axf

JavaScript Object Notation format (JSON) in row-major order
http://www.bom.gov.au/fwo/IDN60801/IDN60801.95747.json